Chesapeake — WDD3041 — position and weather

sailwx.info

Track history (hours):
 
Tides and Currents Weather Stations Pressure Air Temp Water Temp Dewpoint Dewpoint Depression Visibility Wind Speed Wind Dir Waves Ship Positions

Chesapeake

Owner: Vane Line Bunkering, Philadelphia, PA. More information available from US FCC via Universal Licensing System and Coast Guard Vessel Documentation Center.

Last reported at 2018-May-26 07:30 UTC. Time now 2018-May-26 07:50 UTC.
Position N 40°38' W 074°09'.

Length 34 m.

Type: Tug. MMSI: 367123040.

Date/timePositionNaut miles runAvg speedWind from/ knotsBaromVisibWave heightAir tempDewpointWater temp
2018-May-26 07:30N 40°38' W 074°09'3 0.6
2018-May-26 02:49N 40°37' W 074°12'3 7.2
2018-May-26 02:24N 40°39' W 074°09'1 2.6
2018-May-26 02:00N 40°38' W 074°07'0 0.0
2018-May-26 01:30N 40°38' W 074°07'0 0.0
2018-May-26 00:59N 40°39' W 074°07'0 0.0
2018-May-26 00:29N 40°39' W 074°07'0 0.0
2018-May-25 23:59N 40°39' W 074°07'0 0.0
2018-May-25 23:30N 40°38' W 074°07'0 0.0
2018-May-25 23:00N 40°39' W 074°07'0 0.0
2018-May-25 22:30N 40°39' W 074°07'0 0.0
2018-May-25 22:00N 40°39' W 074°07'0 0.0
2018-May-25 21:30N 40°39' W 074°07'0 0.0
2018-May-25 21:00N 40°39' W 074°07'0 0.0
2018-May-25 20:29N 40°39' W 074°07'0 0.0
2018-May-25 20:00N 40°39' W 074°07'0 0.0
2018-May-25 19:30N 40°39' W 074°07'0 0.0
2018-May-25 19:00N 40°39' W 074°07'0 0.0
2018-May-25 18:30N 40°39' W 074°07'0 0.0
2018-May-25 18:00N 40°39' W 074°07'0 0.0
2018-May-25 17:30N 40°39' W 074°07'0 0.0
2018-May-25 17:00N 40°39' W 074°07'0 0.0
2018-May-25 16:30N 40°39' W 074°07'0 0.0
2018-May-25 16:00N 40°39' W 074°07'0 0.0
2018-May-25 15:30N 40°39' W 074°07'0 0.0
2018-May-25 15:00N 40°39' W 074°07'0 0.0
2018-May-25 14:30N 40°39' W 074°07'0 0.0
2018-May-25 14:00N 40°39' W 074°07'0 0.0
2018-May-25 13:30N 40°38' W 074°07'4 6.5
2018-May-25 12:58N 40°38' W 074°12'3 4.7
2018-May-25 12:19N 40°35' W 074°13'0 0.0
2018-May-25 11:57N 40°35' W 074°13'1 1.4
2018-May-25 11:30N 40°36' W 074°12'3 6.5
2018-May-25 11:00N 40°39' W 074°11'4 7.6
2018-May-25 10:30N 40°39' W 074°06'2 5.0
2018-May-25 10:00N 40°39' W 074°03'0 0.0
2018-May-25 09:29N 40°39' W 074°03'0 0.0
2018-May-25 09:00N 40°39' W 074°03'0 0.0
2018-May-25 08:30N 40°39' W 074°03'0 0.1
2018-May-25 08:00N 40°39' W 074°02'0 0.0
2018-May-25 07:30N 40°39' W 074°02'0 0.1
2018-May-25 07:00N 40°39' W 074°02'0 0.0
2018-May-25 06:30N 40°39' W 074°03'0 0.2
2018-May-25 06:00N 40°39' W 074°03'0 0.1
2018-May-25 05:30N 40°39' W 074°03'0 0.0
2018-May-25 05:00N 40°39' W 074°03'0 0.0
2018-May-25 04:30N 40°39' W 074°03'0 0.0
2018-May-25 04:00N 40°39' W 074°03'0 0.0
2018-May-25 03:30N 40°39' W 074°03'0 0.1
2018-May-25 03:00N 40°39' W 074°03'0 0.1
2018-May-25 02:30N 40°39' W 074°03'0 0.3
2018-May-25 02:00N 40°39' W 074°03'0 0.1
2018-May-25 01:30N 40°39' W 074°03'0 0.0
2018-May-25 01:00N 40°39' W 074°03'0 0.1
2018-May-25 00:30N 40°39' W 074°03'0 0.1
2018-May-25 00:00N 40°39' W 074°03'0 0.0
2018-May-24 23:30N 40°39' W 074°03'0 0.0
2018-May-24 23:00N 40°39' W 074°03'0 0.0
2018-May-24 22:30N 40°39' W 074°03'0 0.0
2018-May-24 22:00N 40°39' W 074°03'0 0.0
2018-May-24 21:30N 40°39' W 074°03'0 0.0
2018-May-24 21:00N 40°39' W 074°03'0 0.1
2018-May-24 20:30N 40°39' W 074°03'0 0.0
2018-May-24 20:01N 40°39' W 074°03'0 0.1
2018-May-24 19:30N 40°39' W 074°03'3 6.1
2018-May-24 19:00N 40°39' W 074°07'0 0.0
2018-May-24 18:30N 40°39' W 074°07'0 0.0
2018-May-24 18:00N 40°39' W 074°07'0 0.0
2018-May-24 17:29N 40°39' W 074°07'0 0.0
2018-May-24 17:00N 40°39' W 074°07'0 0.4
2018-May-24 16:31N 40°39' W 074°07'0 0.4
2018-May-24 16:00N 40°39' W 074°07'0 0.1
2018-May-24 15:30N 40°39' W 074°07'3 6.4
2018-May-24 15:00N 40°39' W 074°03'0 0.0
2018-May-24 14:30N 40°39' W 074°03'0 0.0
2018-May-24 14:00N 40°39' W 074°03'0 0.0
2018-May-24 13:30N 40°39' W 074°03'0 0.0
2018-May-24 09:00N 40°39' W 074°03'0 0.1
2018-May-24 08:30N 40°39' W 074°03'0 0.0
2018-May-24 07:59N 40°39' W 074°03'0 0.1
2018-May-24 07:30N 40°39' W 074°03'0 0.1
2018-May-24 07:00N 40°39' W 074°03'0 0.2
2018-May-24 06:30N 40°39' W 074°03'0 0.0
2018-May-24 06:00N 40°39' W 074°03'0 0.0
2018-May-24 05:30N 40°39' W 074°03'0 0.0
2018-May-24 05:00N 40°39' W 074°03'0 0.0
2018-May-24 04:30N 40°39' W 074°03'0 0.1
2018-May-24 04:00N 40°39' W 074°03'0 0.1
2018-May-24 03:30N 40°39' W 074°03'0 0.0
2018-May-24 03:00N 40°39' W 074°03'0 0.0
2018-May-24 02:30N 40°39' W 074°03'0 0.1
2018-May-24 02:00N 40°39' W 074°03'0 0.0
2018-May-24 01:30N 40°39' W 074°03'0 0.1
2018-May-24 01:00N 40°39' W 074°03'0 0.0
2018-May-24 00:30N 40°39' W 074°03'0 0.0
2018-May-24 00:00N 40°39' W 074°03'0 0.1
2018-May-23 23:30N 40°39' W 074°03'0 0.1
2018-May-23 23:00N 40°39' W 074°03'0 0.0
2018-May-23 22:30N 40°39' W 074°03'0 0.0
2018-May-23 22:00N 40°39' W 074°03'0 0.0
2018-May-23 21:30N 40°39' W 074°03'0 0.2
2018-May-23 21:00N 40°39' W 074°03'0 0.0
2018-May-23 20:30N 40°39' W 074°03'0 0.0
2018-May-23 20:00N 40°39' W 074°03'0 0.1
2018-May-23 19:30N 40°39' W 074°03'0 0.1
2018-May-23 19:00N 40°39' W 074°03'0 0.0
2018-May-23 18:30N 40°39' W 074°03'0 0.0
2018-May-23 18:00N 40°39' W 074°03'0 0.2
2018-May-23 17:30N 40°39' W 074°03'0 0.1
2018-May-23 17:00N 40°39' W 074°03'0 0.1
2018-May-23 16:30N 40°39' W 074°03'0 0.1
2018-May-23 16:00N 40°39' W 074°03'0 0.1
2018-May-23 15:30N 40°39' W 074°03'0 0.0
2018-May-23 15:00N 40°39' W 074°03'0 0.0
2018-May-23 14:30N 40°39' W 074°03'0 0.0
2018-May-23 14:00N 40°39' W 074°03'0 0.0
2018-May-23 13:30N 40°39' W 074°03'0 0.0
2018-May-23 13:00N 40°39' W 074°03'0 0.0
2018-May-23 12:30N 40°39' W 074°03'0 0.1
2018-May-23 12:00N 40°39' W 074°03'0 0.0
2018-May-23 11:30N 40°39' W 074°03'0 0.1
2018-May-23 11:00N 40°39' W 074°03'0 0.0
2018-May-23 10:30N 40°39' W 074°03'0 0.1
2018-May-23 09:59N 40°39' W 074°03'0 0.3
2018-May-23 09:29N 40°39' W 074°03'0 0.1
2018-May-23 09:00N 40°39' W 074°03'0 0.0
2018-May-23 08:30N 40°39' W 074°03'0 0.0
2018-May-23 08:00N 40°39' W 074°03'0 0.1
2018-May-23 07:29N 40°39' W 074°03'0 0.0
2018-May-23 07:00N 40°39' W 074°03'0 0.0
2018-May-23 06:30N 40°39' W 074°03'0 0.0
2018-May-23 06:00N 40°39' W 074°03'0 0.1
2018-May-23 05:30N 40°39' W 074°03'0 0.1
2018-May-23 05:00N 40°39' W 074°03'0 0.2
2018-May-23 04:30N 40°39' W 074°03'0 0.0
2018-May-23 04:00N 40°39' W 074°03'0 0.0
2018-May-23 03:30N 40°39' W 074°03'0 0.0
2018-May-23 03:00N 40°39' W 074°03'0 0.0
2018-May-23 02:30N 40°39' W 074°03'0 0.0
2018-May-23 02:00N 40°39' W 074°03'0 0.0
2018-May-23 01:30N 40°39' W 074°03'0 0.0
2018-May-23 01:00N 40°39' W 074°03'0 0.0
2018-May-23 00:30N 40°39' W 074°03'0 0.0
2018-May-23 00:00N 40°39' W 074°03'0 0.0
2018-May-22 23:30N 40°39' W 074°03'0 0.0
2018-May-22 23:00N 40°39' W 074°03'0 0.1
2018-May-22 22:30N 40°39' W 074°03'0 0.2
2018-May-22 22:00N 40°39' W 074°03'0 0.2
2018-May-22 21:30N 40°39' W 074°02'0 0.1
2018-May-22 21:00N 40°39' W 074°03'0 0.0
2018-May-22 20:30N 40°39' W 074°03'0 0.0
2018-May-22 20:00N 40°39' W 074°03'0 0.1
2018-May-22 19:30N 40°39' W 074°03'0 0.0
2018-May-22 19:00N 40°39' W 074°03'0 0.1
2018-May-22 18:30N 40°39' W 074°03'0 0.1
2018-May-22 18:00N 40°39' W 074°03'0 0.0
2018-May-22 17:30N 40°39' W 074°03'0 0.0
2018-May-22 17:00N 40°39' W 074°03'0 0.0
2018-May-22 16:30N 40°39' W 074°03'0 0.1
2018-May-22 16:00N 40°39' W 074°03'3 5.6
2018-May-22 15:30N 40°42' W 074°02'611.7
2018-May-22 15:00N 40°47' W 073°59'1 0.0
2018-May-20 20:23N 40°49' W 073°59'0 0.1
2018-May-20 19:44N 40°49' W 073°59'0 0.1
2018-May-20 19:30N 40°49' W 073°59'0 0.0
2018-May-20 18:49N 40°49' W 073°59'0 0.0
2018-May-20 18:29N 40°49' W 073°59'0 0.0
2018-May-20 18:00N 40°49' W 073°59'0 0.0
2018-May-20 16:39N 40°49' W 073°59'0 0.1
2018-May-20 16:22N 40°49' W 073°59'0 0.1
2018-May-20 15:59N 40°49' W 073°59'0 0.0
2018-May-20 15:28N 40°49' W 073°59'0 0.0
2018-May-20 08:21N 40°48' W 073°59'0 0.3
2018-May-20 07:43N 40°49' W 073°59'0 0.0
2018-May-20 07:30N 40°49' W 073°59'0 0.0
2018-May-20 06:59N 40°49' W 073°59'0 0.0
2018-May-20 06:30N 40°49' W 073°59'0 0.0
2018-May-20 06:00N 40°49' W 073°59'0 0.0
2018-May-20 05:29N 40°49' W 073°59'0 0.0
2018-May-20 05:00N 40°49' W 073°59'0 0.0
2018-May-20 04:21N 40°49' W 073°59'0 0.0
2018-May-20 03:58N 40°49' W 073°59'0 0.0
2018-May-20 03:30N 40°49' W 073°59'0 0.1
2018-May-20 03:00N 40°49' W 073°59'0 0.1
2018-May-20 02:22N 40°49' W 073°59'0 0.1
2018-May-20 00:03N 40°48' W 073°59'0 0.0
2018-May-19 23:54N 40°48' W 073°59'0 0.0
2018-May-19 23:28N 40°48' W 073°59'0 0.0
2018-May-19 22:58N 40°48' W 073°59'0 0.0
2018-May-19 22:25N 40°48' W 073°59'0 0.0
2018-May-19 21:56N 40°48' W 073°59'0 0.0
2018-May-19 21:18N 40°48' W 073°59'0 0.0
2018-May-19 20:08N 40°48' W 073°59'0 0.0
2018-May-19 19:39N 40°48' W 073°59'0 0.2
2018-May-19 19:24N 40°49' W 073°59'0 0.3
2018-May-19 19:00N 40°49' W 073°59'0 0.1
2018-May-19 18:22N 40°49' W 073°59'0 0.0
2018-May-19 17:59N 40°49' W 073°59'0 0.0
2018-May-19 17:30N 40°49' W 073°59'0 0.0
2018-May-19 16:56N 40°49' W 073°59'0 0.2
2018-May-19 16:24N 40°49' W 073°59'0 0.0
2018-May-19 16:00N 40°49' W 073°59'0 0.1
2018-May-19 15:07N 40°49' W 073°59'0 0.1
2018-May-19 14:36N 40°49' W 073°59'0 0.3
2018-May-19 14:27N 40°49' W 073°59'0 0.0
2018-May-19 06:18N 40°49' W 073°59'0 0.2
2018-May-19 05:55N 40°49' W 073°59'0 0.3
2018-May-19 05:29N 40°49' W 073°59'0 0.1
2018-May-19 04:56N 40°49' W 073°59'0 0.0
2018-May-19 04:28N 40°49' W 073°59'0 0.0
2018-May-19 03:55N 40°49' W 073°59'0 0.0
2018-May-19 03:30N 40°49' W 073°59'0 0.0
2018-May-19 03:00N 40°49' W 073°59'0 0.0
2018-May-19 02:30N 40°49' W 073°59'0 0.1
2018-May-19 02:00N 40°49' W 073°59'0 0.1
2018-May-19 01:19N 40°49' W 073°59'0 0.1
2018-May-19 00:55N 40°49' W 073°59'0 0.2
2018-May-19 00:25N 40°49' W 073°59'0 0.0
2018-May-18 18:56N 40°49' W 073°59'0 0.0
2018-May-18 18:18N 40°48' W 073°59'0 0.1
2018-May-18 17:49N 40°49' W 073°59'0 0.0
2018-May-18 17:25N 40°49' W 073°59'0 0.1
2018-May-18 16:47N 40°49' W 073°59'0 0.1
2018-May-18 16:30N 40°49' W 073°59'0 0.0
2018-May-18 15:59N 40°49' W 073°59'0 0.0
2018-May-18 15:29N 40°49' W 073°59'0 0.0
2018-May-18 14:58N 40°49' W 073°59'0 0.1
2018-May-18 14:28N 40°49' W 073°59'0 0.1
2018-May-18 13:51N 40°49' W 073°59'0 0.1
2018-May-18 13:26N 40°49' W 073°59'0 0.1
2018-May-18 12:59N 40°49' W 073°59'0 0.1
2018-May-18 11:16N 40°48' W 073°59'0 0.0
2018-May-18 06:14N 40°49' W 073°59'0 0.1
2018-May-18 05:04N 40°49' W 073°59'0 0.0
2018-May-18 04:57N 40°49' W 073°59'0 0.0
2018-May-18 00:20N 40°49' W 073°58'2 2.8
2018-May-17 23:35N 40°47' W 073°60'1 9.6
2018-May-17 23:30N 40°46' W 074°00'4 8.8
2018-May-17 23:01N 40°42' W 074°02'3 5.2
2018-May-17 22:31N 40°40' W 074°03'0 0.0
2018-May-17 22:01N 40°40' W 074°03'0 0.0
2018-May-17 21:31N 40°40' W 074°03'0 0.0
2018-May-17 21:00N 40°40' W 074°03'0 0.0
2018-May-17 20:31N 40°40' W 074°03'0 0.0
2018-May-17 20:01N 40°40' W 074°03'0 0.0
2018-May-17 19:30N 40°40' W 074°03'0 0.0
2018-May-17 19:00N 40°40' W 074°03'0 0.0
2018-May-17 18:30N 40°40' W 074°03'0 0.0
2018-May-17 18:01N 40°40' W 074°03'0 0.1
2018-May-17 17:31N 40°40' W 074°03'0 0.0
2018-May-17 17:01N 40°40' W 074°03'0 0.2
2018-May-17 16:30N 40°40' W 074°03'0 0.2
2018-May-17 16:01N 40°40' W 074°03'0 0.0
2018-May-17 15:31N 40°40' W 074°03'0 0.0
2018-May-17 15:01N 40°40' W 074°03'0 0.1
2018-May-17 14:30N 40°40' W 074°03'0 0.0
2018-May-17 14:01N 40°40' W 074°03'0 0.0
2018-May-17 13:30N 40°40' W 074°03'0 0.1
2018-May-17 13:01N 40°40' W 074°03'0 0.2
2018-May-17 12:30N 40°40' W 074°03'0 0.1
2018-May-17 12:01N 40°40' W 074°03'0 0.0
2018-May-17 11:31N 40°40' W 074°03'0 0.0
2018-May-17 11:00N 40°40' W 074°03'0 0.0
2018-May-17 10:30N 40°40' W 074°03'0 0.0
2018-May-17 10:01N 40°40' W 074°03'0 0.0
2018-May-17 09:31N 40°40' W 074°03'0 0.0
2018-May-17 09:01N 40°40' W 074°03'0 0.0
2018-May-17 08:30N 40°40' W 074°03'0 0.0
2018-May-17 08:00N 40°40' W 074°03'0 0.0
2018-May-17 07:31N 40°40' W 074°03'0 0.0
2018-May-17 07:01N 40°40' W 074°03'0 0.0
2018-May-17 06:31N 40°40' W 074°03'0 0.0
2018-May-17 06:00N 40°40' W 074°03'0 0.0
2018-May-17 05:31N 40°40' W 074°03'0 0.1
2018-May-17 05:01N 40°40' W 074°03'1 2.5
2018-May-17 04:31N 40°41' W 074°02'510.0
2018-May-17 04:00N 40°46' W 074°01'  
Track history (hours):
 
Tides and Currents Weather Stations Pressure Air Temp Water Temp Dewpoint Dewpoint Depression Visibility Wind Speed Wind Dir Waves Ship Positions

Chesapeake

Owner: Vane Line Bunkering, Philadelphia, PA. More information available from US FCC via Universal Licensing System and Coast Guard Vessel Documentation Center.

Last reported at 2018-May-26 07:30 UTC. Time now 2018-May-26 07:50 UTC.
Position N 40°38' W 074°09'.

Length 34 m.

Type: Tug. MMSI: 367123040.

Date/timePositionNaut miles runAvg speedWind from/ knotsBaromVisibWave heightAir tempDewpointWater temp
2018-May-26 07:30N 40°38' W 074°09'3 0.6
2018-May-26 02:49N 40°37' W 074°12'3 7.2
2018-May-26 02:24N 40°39' W 074°09'1 2.6
2018-May-26 02:00N 40°38' W 074°07'0 0.0
2018-May-26 01:30N 40°38' W 074°07'0 0.0
2018-May-26 00:59N 40°39' W 074°07'0 0.0
2018-May-26 00:29N 40°39' W 074°07'0 0.0
2018-May-25 23:59N 40°39' W 074°07'0 0.0
2018-May-25 23:30N 40°38' W 074°07'0 0.0
2018-May-25 23:00N 40°39' W 074°07'0 0.0
2018-May-25 22:30N 40°39' W 074°07'0 0.0
2018-May-25 22:00N 40°39' W 074°07'0 0.0
2018-May-25 21:30N 40°39' W 074°07'0 0.0
2018-May-25 21:00N 40°39' W 074°07'0 0.0
2018-May-25 20:29N 40°39' W 074°07'0 0.0
2018-May-25 20:00N 40°39' W 074°07'0 0.0
2018-May-25 19:30N 40°39' W 074°07'0 0.0
2018-May-25 19:00N 40°39' W 074°07'0 0.0
2018-May-25 18:30N 40°39' W 074°07'0 0.0
2018-May-25 18:00N 40°39' W 074°07'0 0.0
2018-May-25 17:30N 40°39' W 074°07'0 0.0
2018-May-25 17:00N 40°39' W 074°07'0 0.0
2018-May-25 16:30N 40°39' W 074°07'0 0.0
2018-May-25 16:00N 40°39' W 074°07'0 0.0
2018-May-25 15:30N 40°39' W 074°07'0 0.0
2018-May-25 15:00N 40°39' W 074°07'0 0.0
2018-May-25 14:30N 40°39' W 074°07'0 0.0
2018-May-25 14:00N 40°39' W 074°07'0 0.0
2018-May-25 13:30N 40°38' W 074°07'4 6.5
2018-May-25 12:58N 40°38' W 074°12'3 4.7
2018-May-25 12:19N 40°35' W 074°13'0 0.0
2018-May-25 11:57N 40°35' W 074°13'1 1.4
2018-May-25 11:30N 40°36' W 074°12'3 6.5
2018-May-25 11:00N 40°39' W 074°11'4 7.6
2018-May-25 10:30N 40°39' W 074°06'2 5.0
2018-May-25 10:00N 40°39' W 074°03'0 0.0
2018-May-25 09:29N 40°39' W 074°03'0 0.0
2018-May-25 09:00N 40°39' W 074°03'0 0.0
2018-May-25 08:30N 40°39' W 074°03'0 0.1
2018-May-25 08:00N 40°39' W 074°02'0 0.0
2018-May-25 07:30N 40°39' W 074°02'0 0.1
2018-May-25 07:00N 40°39' W 074°02'0 0.0
2018-May-25 06:30N 40°39' W 074°03'0 0.2
2018-May-25 06:00N 40°39' W 074°03'0 0.1
2018-May-25 05:30N 40°39' W 074°03'0 0.0
2018-May-25 05:00N 40°39' W 074°03'0 0.0
2018-May-25 04:30N 40°39' W 074°03'0 0.0
2018-May-25 04:00N 40°39' W 074°03'0 0.0
2018-May-25 03:30N 40°39' W 074°03'0 0.1
2018-May-25 03:00N 40°39' W 074°03'0 0.1
2018-May-25 02:30N 40°39' W 074°03'0 0.3
2018-May-25 02:00N 40°39' W 074°03'0 0.1
2018-May-25 01:30N 40°39' W 074°03'0 0.0
2018-May-25 01:00N 40°39' W 074°03'0 0.1
2018-May-25 00:30N 40°39' W 074°03'0 0.1
2018-May-25 00:00N 40°39' W 074°03'0 0.0
2018-May-24 23:30N 40°39' W 074°03'0 0.0
2018-May-24 23:00N 40°39' W 074°03'0 0.0
2018-May-24 22:30N 40°39' W 074°03'0 0.0
2018-May-24 22:00N 40°39' W 074°03'0 0.0
2018-May-24 21:30N 40°39' W 074°03'0 0.0
2018-May-24 21:00N 40°39' W 074°03'0 0.1
2018-May-24 20:30N 40°39' W 074°03'0 0.0
2018-May-24 20:01N 40°39' W 074°03'0 0.1
2018-May-24 19:30N 40°39' W 074°03'3 6.1
2018-May-24 19:00N 40°39' W 074°07'0 0.0
2018-May-24 18:30N 40°39' W 074°07'0 0.0
2018-May-24 18:00N 40°39' W 074°07'0 0.0
2018-May-24 17:29N 40°39' W 074°07'0 0.0
2018-May-24 17:00N 40°39' W 074°07'0 0.4
2018-May-24 16:31N 40°39' W 074°07'0 0.4
2018-May-24 16:00N 40°39' W 074°07'0 0.1
2018-May-24 15:30N 40°39' W 074°07'3 6.4
2018-May-24 15:00N 40°39' W 074°03'0 0.0
2018-May-24 14:30N 40°39' W 074°03'0 0.0
2018-May-24 14:00N 40°39' W 074°03'0 0.0
2018-May-24 13:30N 40°39' W 074°03'0 0.0
2018-May-24 09:00N 40°39' W 074°03'0 0.1
2018-May-24 08:30N 40°39' W 074°03'0 0.0
2018-May-24 07:59N 40°39' W 074°03'0 0.1
2018-May-24 07:30N 40°39' W 074°03'0 0.1
2018-May-24 07:00N 40°39' W 074°03'0 0.2
2018-May-24 06:30N 40°39' W 074°03'0 0.0
2018-May-24 06:00N 40°39' W 074°03'0 0.0
2018-May-24 05:30N 40°39' W 074°03'0 0.0
2018-May-24 05:00N 40°39' W 074°03'0 0.0
2018-May-24 04:30N 40°39' W 074°03'0 0.1
2018-May-24 04:00N 40°39' W 074°03'0 0.1
2018-May-24 03:30N 40°39' W 074°03'0 0.0
2018-May-24 03:00N 40°39' W 074°03'0 0.0
2018-May-24 02:30N 40°39' W 074°03'0 0.1
2018-May-24 02:00N 40°39' W 074°03'0 0.0
2018-May-24 01:30N 40°39' W 074°03'0 0.1
2018-May-24 01:00N 40°39' W 074°03'0 0.0
2018-May-24 00:30N 40°39' W 074°03'0 0.0
2018-May-24 00:00N 40°39' W 074°03'0 0.1
2018-May-23 23:30N 40°39' W 074°03'0 0.1
2018-May-23 23:00N 40°39' W 074°03'0 0.0
2018-May-23 22:30N 40°39' W 074°03'0 0.0
2018-May-23 22:00N 40°39' W 074°03'0 0.0
2018-May-23 21:30N 40°39' W 074°03'0 0.2
2018-May-23 21:00N 40°39' W 074°03'0 0.0
2018-May-23 20:30N 40°39' W 074°03'0 0.0
2018-May-23 20:00N 40°39' W 074°03'0 0.1
2018-May-23 19:30N 40°39' W 074°03'0 0.1
2018-May-23 19:00N 40°39' W 074°03'0 0.0
2018-May-23 18:30N 40°39' W 074°03'0 0.0
2018-May-23 18:00N 40°39' W 074°03'0 0.2
2018-May-23 17:30N 40°39' W 074°03'0 0.1
2018-May-23 17:00N 40°39' W 074°03'0 0.1
2018-May-23 16:30N 40°39' W 074°03'0 0.1
2018-May-23 16:00N 40°39' W 074°03'0 0.1
2018-May-23 15:30N 40°39' W 074°03'0 0.0
2018-May-23 15:00N 40°39' W 074°03'0 0.0
2018-May-23 14:30N 40°39' W 074°03'0 0.0
2018-May-23 14:00N 40°39' W 074°03'0 0.0
2018-May-23 13:30N 40°39' W 074°03'0 0.0
2018-May-23 13:00N 40°39' W 074°03'0 0.0
2018-May-23 12:30N 40°39' W 074°03'0 0.1
2018-May-23 12:00N 40°39' W 074°03'0 0.0
2018-May-23 11:30N 40°39' W 074°03'0 0.1
2018-May-23 11:00N 40°39' W 074°03'0 0.0
2018-May-23 10:30N 40°39' W 074°03'0 0.1
2018-May-23 09:59N 40°39' W 074°03'0 0.3
2018-May-23 09:29N 40°39' W 074°03'0 0.1
2018-May-23 09:00N 40°39' W 074°03'0 0.0
2018-May-23 08:30N 40°39' W 074°03'0 0.0
2018-May-23 08:00N 40°39' W 074°03'0 0.1
2018-May-23 07:29N 40°39' W 074°03'0 0.0
2018-May-23 07:00N 40°39' W 074°03'0 0.0
2018-May-23 06:30N 40°39' W 074°03'0 0.0
2018-May-23 06:00N 40°39' W 074°03'0 0.1
2018-May-23 05:30N 40°39' W 074°03'0 0.1
2018-May-23 05:00N 40°39' W 074°03'0 0.2
2018-May-23 04:30N 40°39' W 074°03'0 0.0
2018-May-23 04:00N 40°39' W 074°03'0 0.0
2018-May-23 03:30N 40°39' W 074°03'0 0.0
2018-May-23 03:00N 40°39' W 074°03'0 0.0
2018-May-23 02:30N 40°39' W 074°03'0 0.0
2018-May-23 02:00N 40°39' W 074°03'0 0.0
2018-May-23 01:30N 40°39' W 074°03'0 0.0
2018-May-23 01:00N 40°39' W 074°03'0 0.0
2018-May-23 00:30N 40°39' W 074°03'0 0.0
2018-May-23 00:00N 40°39' W 074°03'0 0.0
2018-May-22 23:30N 40°39' W 074°03'0 0.0
2018-May-22 23:00N 40°39' W 074°03'0 0.1
2018-May-22 22:30N 40°39' W 074°03'0 0.2
2018-May-22 22:00N 40°39' W 074°03'0 0.2
2018-May-22 21:30N 40°39' W 074°02'0 0.1
2018-May-22 21:00N 40°39' W 074°03'0 0.0
2018-May-22 20:30N 40°39' W 074°03'0 0.0
2018-May-22 20:00N 40°39' W 074°03'0 0.1
2018-May-22 19:30N 40°39' W 074°03'0 0.0
2018-May-22 19:00N 40°39' W 074°03'0 0.1
2018-May-22 18:30N 40°39' W 074°03'0 0.1
2018-May-22 18:00N 40°39' W 074°03'0 0.0
2018-May-22 17:30N 40°39' W 074°03'0 0.0
2018-May-22 17:00N 40°39' W 074°03'0 0.0
2018-May-22 16:30N 40°39' W 074°03'0 0.1
2018-May-22 16:00N 40°39' W 074°03'3 5.6
2018-May-22 15:30N 40°42' W 074°02'611.7
2018-May-22 15:00N 40°47' W 073°59'1 0.0
2018-May-20 20:23N 40°49' W 073°59'0 0.1
2018-May-20 19:44N 40°49' W 073°59'0 0.1
2018-May-20 19:30N 40°49' W 073°59'0 0.0
2018-May-20 18:49N 40°49' W 073°59'0 0.0
2018-May-20 18:29N 40°49' W 073°59'0 0.0
2018-May-20 18:00N 40°49' W 073°59'0 0.0
2018-May-20 16:39N 40°49' W 073°59'0 0.1
2018-May-20 16:22N 40°49' W 073°59'0 0.1
2018-May-20 15:59N 40°49' W 073°59'0 0.0
2018-May-20 15:28N 40°49' W 073°59'0 0.0
2018-May-20 08:21N 40°48' W 073°59'0 0.3
2018-May-20 07:43N 40°49' W 073°59'0 0.0
2018-May-20 07:30N 40°49' W 073°59'0 0.0
2018-May-20 06:59N 40°49' W 073°59'0 0.0
2018-May-20 06:30N 40°49' W 073°59'0 0.0
2018-May-20 06:00N 40°49' W 073°59'0 0.0
2018-May-20 05:29N 40°49' W 073°59'0 0.0
2018-May-20 05:00N 40°49' W 073°59'0 0.0
2018-May-20 04:21N 40°49' W 073°59'0 0.0
2018-May-20 03:58N 40°49' W 073°59'0 0.0
2018-May-20 03:30N 40°49' W 073°59'0 0.1
2018-May-20 03:00N 40°49' W 073°59'0 0.1
2018-May-20 02:22N 40°49' W 073°59'0 0.1
2018-May-20 00:03N 40°48' W 073°59'0 0.0
2018-May-19 23:54N 40°48' W 073°59'0 0.0
2018-May-19 23:28N 40°48' W 073°59'0 0.0
2018-May-19 22:58N 40°48' W 073°59'0 0.0
2018-May-19 22:25N 40°48' W 073°59'0 0.0
2018-May-19 21:56N 40°48' W 073°59'0 0.0
2018-May-19 21:18N 40°48' W 073°59'0 0.0
2018-May-19 20:08N 40°48' W 073°59'0 0.0
2018-May-19 19:39N 40°48' W 073°59'0 0.2
2018-May-19 19:24N 40°49' W 073°59'0 0.3
2018-May-19 19:00N 40°49' W 073°59'0 0.1
2018-May-19 18:22N 40°49' W 073°59'0 0.0
2018-May-19 17:59N 40°49' W 073°59'0 0.0
2018-May-19 17:30N 40°49' W 073°59'0 0.0
2018-May-19 16:56N 40°49' W 073°59'0 0.2
2018-May-19 16:24N 40°49' W 073°59'0 0.0
2018-May-19 16:00N 40°49' W 073°59'0 0.1
2018-May-19 15:07N 40°49' W 073°59'0 0.1
2018-May-19 14:36N 40°49' W 073°59'0 0.3
2018-May-19 14:27N 40°49' W 073°59'0 0.0
2018-May-19 06:18N 40°49' W 073°59'0 0.2
2018-May-19 05:55N 40°49' W 073°59'0 0.3
2018-May-19 05:29N 40°49' W 073°59'0 0.1
2018-May-19 04:56N 40°49' W 073°59'0 0.0
2018-May-19 04:28N 40°49' W 073°59'0 0.0
2018-May-19 03:55N 40°49' W 073°59'0 0.0
2018-May-19 03:30N 40°49' W 073°59'0 0.0
2018-May-19 03:00N 40°49' W 073°59'0 0.0
2018-May-19 02:30N 40°49' W 073°59'0 0.1
2018-May-19 02:00N 40°49' W 073°59'0 0.1
2018-May-19 01:19N 40°49' W 073°59'0 0.1
2018-May-19 00:55N 40°49' W 073°59'0 0.2
2018-May-19 00:25N 40°49' W 073°59'0 0.0
2018-May-18 18:56N 40°49' W 073°59'0 0.0
2018-May-18 18:18N 40°48' W 073°59'0 0.1
2018-May-18 17:49N 40°49' W 073°59'0 0.0
2018-May-18 17:25N 40°49' W 073°59'0 0.1
2018-May-18 16:47N 40°49' W 073°59'0 0.1
2018-May-18 16:30N 40°49' W 073°59'0 0.0
2018-May-18 15:59N 40°49' W 073°59'0 0.0
2018-May-18 15:29N 40°49' W 073°59'0 0.0
2018-May-18 14:58N 40°49' W 073°59'0 0.1
2018-May-18 14:28N 40°49' W 073°59'0 0.1
2018-May-18 13:51N 40°49' W 073°59'0 0.1
2018-May-18 13:26N 40°49' W 073°59'0 0.1
2018-May-18 12:59N 40°49' W 073°59'0 0.1
2018-May-18 11:16N 40°48' W 073°59'0 0.0
2018-May-18 06:14N 40°49' W 073°59'0 0.1
2018-May-18 05:04N 40°49' W 073°59'0 0.0
2018-May-18 04:57N 40°49' W 073°59'0 0.0
2018-May-18 00:20N 40°49' W 073°58'2 2.8
2018-May-17 23:35N 40°47' W 073°60'1 9.6
2018-May-17 23:30N 40°46' W 074°00'4 8.8
2018-May-17 23:01N 40°42' W 074°02'3 5.2
2018-May-17 22:31N 40°40' W 074°03'0 0.0
2018-May-17 22:01N 40°40' W 074°03'0 0.0
2018-May-17 21:31N 40°40' W 074°03'0 0.0
2018-May-17 21:00N 40°40' W 074°03'0 0.0
2018-May-17 20:31N 40°40' W 074°03'0 0.0
2018-May-17 20:01N 40°40' W 074°03'0 0.0
2018-May-17 19:30N 40°40' W 074°03'0 0.0
2018-May-17 19:00N 40°40' W 074°03'0 0.0
2018-May-17 18:30N 40°40' W 074°03'0 0.0
2018-May-17 18:01N 40°40' W 074°03'0 0.1
2018-May-17 17:31N 40°40' W 074°03'0 0.0
2018-May-17 17:01N 40°40' W 074°03'0 0.2
2018-May-17 16:30N 40°40' W 074°03'0 0.2
2018-May-17 16:01N 40°40' W 074°03'0 0.0
2018-May-17 15:31N 40°40' W 074°03'0 0.0
2018-May-17 15:01N 40°40' W 074°03'0 0.1
2018-May-17 14:30N 40°40' W 074°03'0 0.0
2018-May-17 14:01N 40°40' W 074°03'0 0.0
2018-May-17 13:30N 40°40' W 074°03'0 0.1
2018-May-17 13:01N 40°40' W 074°03'0 0.2
2018-May-17 12:30N 40°40' W 074°03'0 0.1
2018-May-17 12:01N 40°40' W 074°03'0 0.0
2018-May-17 11:31N 40°40' W 074°03'0 0.0
2018-May-17 11:00N 40°40' W 074°03'0 0.0
2018-May-17 10:30N 40°40' W 074°03'0 0.0
2018-May-17 10:01N 40°40' W 074°03'0 0.0
2018-May-17 09:31N 40°40' W 074°03'0 0.0
2018-May-17 09:01N 40°40' W 074°03'0 0.0
2018-May-17 08:30N 40°40' W 074°03'0 0.0
2018-May-17 08:00N 40°40' W 074°03'0 0.0
2018-May-17 07:31N 40°40' W 074°03'0 0.0
2018-May-17 07:01N 40°40' W 074°03'0 0.0
2018-May-17 06:31N 40°40' W 074°03'0 0.0
2018-May-17 06:00N 40°40' W 074°03'0 0.0
2018-May-17 05:31N 40°40' W 074°03'0 0.1
2018-May-17 05:01N 40°40' W 074°03'1 2.5
2018-May-17 04:31N 40°41' W 074°02'510.0
2018-May-17 04:00N 40°46' W 074°01'  

Dump ship's entire track history